Crescent, Missouri
Current Conditions -  °F | °C
As of 12:54 PM on Sunday 23 Nov 2014 (Local Time) from KSUS Reporting Station
Light Rain Light Rain  
Wind Chill: 55°   Ceiling: 900
Heat Index: 55°   Visibility: 4mi
Dew Point: 53°   Wind: 3mph
Humidity: 93%   Direction: NA
Pressure: 29.44"   Gusts: NA
Location:  38.5081°N, 90.6523°W
Report Text: KSUS 231854Z VRB03KT 4SM -RA BR OVC009 13/12 A2944 RMK AO2 SLP969 P0010 T01280117
Loading
Personal Weather Stations






























Interactive Weather Map New forecast layout! Learn more

10-Day Weather Forecast

Advertisements
Track Severe Weather on mobile